sensor_id;sensor_type;location;lat;lon;timestamp;P1;durP1;ratioP1;P2;durP2;ratioP2
52268;SDS011;38224;50.950;4.100;2022-11-21T00:01:29;17.90;;;4.90;;
52268;SDS011;38224;50.950;4.100;2022-11-21T00:03:55;19.43;;;5.57;;
52268;SDS011;38224;50.950;4.100;2022-11-21T00:06:20;26.93;;;5.67;;
52268;SDS011;38224;50.950;4.100;2022-11-21T00:08:47;25.00;;;5.32;;
52268;SDS011;38224;50.950;4.100;2022-11-21T00:11:12;19.63;;;5.97;;
52268;SDS011;38224;50.950;4.100;2022-11-21T00:13:38;22.65;;;5.53;;
52268;SDS011;38224;50.950;4.100;2022-11-21T00:16:04;16.48;;;5.75;;
52268;SDS011;38224;50.950;4.100;2022-11-21T00:18:29;19.35;;;5.97;;
52268;SDS011;38224;50.950;4.100;2022-11-21T00:20:54;23.00;;;6.50;;
52268;SDS011;38224;50.950;4.100;2022-11-21T00:23:19;16.00;;;4.93;;
52268;SDS011;38224;50.950;4.100;2022-11-21T00:25:45;19.63;;;5.43;;
52268;SDS011;38224;50.950;4.100;2022-11-21T00:28:10;18.83;;;5.60;;
52268;SDS011;38224;50.950;4.100;2022-11-21T00:30:35;14.37;;;5.03;;
52268;SDS011;38224;50.950;4.100;2022-11-21T00:33:00;21.67;;;6.17;;
52268;SDS011;38224;50.950;4.100;2022-11-21T00:35:26;21.40;;;5.93;;
52268;SDS011;38224;50.950;4.100;2022-11-21T00:37:51;16.75;;;5.43;;
52268;SDS011;38224;50.950;4.100;2022-11-21T00:40:16;19.45;;;5.72;;
52268;SDS011;38224;50.950;4.100;2022-11-21T00:42:42;26.83;;;5.63;;
52268;SDS011;38224;50.950;4.100;2022-11-21T00:45:07;23.10;;;5.88;;
52268;SDS011;38224;50.950;4.100;2022-11-21T00:47:33;16.38;;;4.80;;
52268;SDS011;38224;50.950;4.100;2022-11-21T00:49:58;29.77;;;5.37;;
52268;SDS011;38224;50.950;4.100;2022-11-21T00:52:23;22.50;;;5.40;;
52268;SDS011;38224;50.950;4.100;2022-11-21T00:54:48;25.53;;;5.50;;
52268;SDS011;38224;50.950;4.100;2022-11-21T00:57:13;21.33;;;5.00;;
52268;SDS011;38224;50.950;4.100;2022-11-21T00:59:39;20.80;;;5.30;;
52268;SDS011;38224;50.950;4.100;2022-11-21T01:02:04;17.53;;;5.07;;
52268;SDS011;38224;50.950;4.100;2022-11-21T01:04:33;17.90;;;4.70;;
52268;SDS011;38224;50.950;4.100;2022-11-21T01:06:58;16.92;;;4.63;;
52268;SDS011;38224;50.950;4.100;2022-11-21T01:09:23;20.33;;;5.10;;
52268;SDS011;38224;50.950;4.100;2022-11-21T01:11:49;18.60;;;4.53;;
52268;SDS011;38224;50.950;4.100;2022-11-21T01:14:14;17.40;;;4.18;;
52268;SDS011;38224;50.950;4.100;2022-11-21T01:16:40;21.13;;;4.40;;
52268;SDS011;38224;50.950;4.100;2022-11-21T01:19:05;15.23;;;4.45;;
52268;SDS011;38224;50.950;4.100;2022-11-21T01:21:31;17.50;;;3.95;;
52268;SDS011;38224;50.950;4.100;2022-11-21T01:23:59;22.02;;;3.85;;
52268;SDS011;38224;50.950;4.100;2022-11-21T01:26:25;14.20;;;3.88;;
52268;SDS011;38224;50.950;4.100;2022-11-21T01:28:51;26.35;;;4.70;;
52268;SDS011;38224;50.950;4.100;2022-11-21T01:31:21;13.68;;;3.60;;
52268;SDS011;38224;50.950;4.100;2022-11-21T01:33:46;18.05;;;4.20;;
52268;SDS011;38224;50.950;4.100;2022-11-21T01:36:16;14.65;;;4.45;;
52268;SDS011;38224;50.950;4.100;2022-11-21T01:38:43;18.95;;;4.53;;
52268;SDS011;38224;50.950;4.100;2022-11-21T01:41:09;12.18;;;3.92;;
52268;SDS011;38224;50.950;4.100;2022-11-21T01:43:34;15.40;;;4.13;;
52268;SDS011;38224;50.950;4.100;2022-11-21T01:46:07;17.88;;;4.15;;
52268;SDS011;38224;50.950;4.100;2022-11-21T01:48:39;18.70;;;4.63;;
52268;SDS011;38224;50.950;4.100;2022-11-21T01:52:08;18.98;;;4.57;;
52268;SDS011;38224;50.950;4.100;2022-11-21T01:54:02;19.13;;;4.15;;
52268;SDS011;38224;50.950;4.100;2022-11-21T01:56:29;17.92;;;3.95;;
52268;SDS011;38224;50.950;4.100;2022-11-21T01:58:56;11.23;;;3.63;;
52268;SDS011;38224;50.950;4.100;2022-11-21T02:01:23;17.45;;;3.85;;
52268;SDS011;38224;50.950;4.100;2022-11-21T02:03:49;11.95;;;4.07;;
52268;SDS011;38224;50.950;4.100;2022-11-21T02:06:15;12.13;;;3.63;;
52268;SDS011;38224;50.950;4.100;2022-11-21T02:08:40;12.75;;;3.63;;
52268;SDS011;38224;50.950;4.100;2022-11-21T02:13:51;17.98;;;3.88;;
52268;SDS011;38224;50.950;4.100;2022-11-21T02:16:16;12.35;;;3.33;;
52268;SDS011;38224;50.950;4.100;2022-11-21T02:18:41;14.30;;;3.63;;
52268;SDS011;38224;50.950;4.100;2022-11-21T02:21:22;19.65;;;3.55;;
52268;SDS011;38224;50.950;4.100;2022-11-21T02:23:56;10.38;;;3.50;;
52268;SDS011;38224;50.950;4.100;2022-11-21T02:26:25;12.70;;;3.78;;
52268;SDS011;38224;50.950;4.100;2022-11-21T02:28:50;12.70;;;3.23;;
52268;SDS011;38224;50.950;4.100;2022-11-21T02:31:16;15.93;;;3.65;;
52268;SDS011;38224;50.950;4.100;2022-11-21T02:33:41;14.80;;;3.77;;
52268;SDS011;38224;50.950;4.100;2022-11-21T02:38:50;8.63;;;3.38;;
52268;SDS011;38224;50.950;4.100;2022-11-21T02:41:18;16.00;;;4.05;;
52268;SDS011;38224;50.950;4.100;2022-11-21T02:43:51;12.88;;;3.78;;
52268;SDS011;38224;50.950;4.100;2022-11-21T02:46:18;18.27;;;3.67;;
52268;SDS011;38224;50.950;4.100;2022-11-21T02:48:43;20.90;;;3.92;;
52268;SDS011;38224;50.950;4.100;2022-11-21T02:51:08;17.02;;;2.60;;
52268;SDS011;38224;50.950;4.100;2022-11-21T02:53:34;15.17;;;3.40;;
52268;SDS011;38224;50.950;4.100;2022-11-21T02:55:59;7.93;;;3.35;;
52268;SDS011;38224;50.950;4.100;2022-11-21T02:58:24;14.90;;;3.00;;
52268;SDS011;38224;50.950;4.100;2022-11-21T03:00:49;12.97;;;3.23;;
52268;SDS011;38224;50.950;4.100;2022-11-21T03:03:15;6.22;;;2.80;;
52268;SDS011;38224;50.950;4.100;2022-11-21T03:05:40;18.20;;;3.30;;
52268;SDS011;38224;50.950;4.100;2022-11-21T03:08:05;13.15;;;3.13;;
52268;SDS011;38224;50.950;4.100;2022-11-21T03:10:31;14.43;;;3.13;;
52268;SDS011;38224;50.950;4.100;2022-11-21T03:12:56;10.10;;;3.13;;
52268;SDS011;38224;50.950;4.100;2022-11-21T03:15:25;14.77;;;3.05;;
52268;SDS011;38224;50.950;4.100;2022-11-21T03:17:50;10.48;;;2.95;;
52268;SDS011;38224;50.950;4.100;2022-11-21T03:20:15;13.73;;;3.00;;
52268;SDS011;38224;50.950;4.100;2022-11-21T03:22:40;15.17;;;2.73;;
52268;SDS011;38224;50.950;4.100;2022-11-21T03:25:06;17.40;;;3.40;;
52268;SDS011;38224;50.950;4.100;2022-11-21T03:27:31;11.18;;;2.67;;
52268;SDS011;38224;50.950;4.100;2022-11-21T03:29:56;16.43;;;2.90;;
52268;SDS011;38224;50.950;4.100;2022-11-21T03:32:21;11.97;;;2.83;;
52268;SDS011;38224;50.950;4.100;2022-11-21T03:34:47;15.40;;;3.30;;
52268;SDS011;38224;50.950;4.100;2022-11-21T03:37:12;19.23;;;3.88;;
52268;SDS011;38224;50.950;4.100;2022-11-21T03:39:37;16.50;;;3.40;;
52268;SDS011;38224;50.950;4.100;2022-11-21T03:42:03;7.73;;;2.87;;
52268;SDS011;38224;50.950;4.100;2022-11-21T03:44:28;10.82;;;3.10;;
52268;SDS011;38224;50.950;4.100;2022-11-21T03:46:53;16.97;;;3.57;;
52268;SDS011;38224;50.950;4.100;2022-11-21T03:49:18;12.53;;;3.80;;
52268;SDS011;38224;50.950;4.100;2022-11-21T03:51:44;11.20;;;3.60;;
52268;SDS011;38224;50.950;4.100;2022-11-21T03:54:09;8.73;;;3.05;;
52268;SDS011;38224;50.950;4.100;2022-11-21T03:56:35;9.48;;;3.00;;
52268;SDS011;38224;50.950;4.100;2022-11-21T03:59:00;9.53;;;2.73;;
52268;SDS011;38224;50.950;4.100;2022-11-21T04:01:26;17.75;;;3.63;;
52268;SDS011;38224;50.950;4.100;2022-11-21T04:03:51;19.35;;;3.13;;
52268;SDS011;38224;50.950;4.100;2022-11-21T04:06:18;18.73;;;3.50;;
52268;SDS011;38224;50.950;4.100;2022-11-21T04:08:43;15.60;;;3.40;;
52268;SDS011;38224;50.950;4.100;2022-11-21T04:11:09;11.40;;;3.10;;
52268;SDS011;38224;50.950;4.100;2022-11-21T04:13:34;12.20;;;3.08;;
52268;SDS011;38224;50.950;4.100;2022-11-21T04:16:00;13.60;;;3.10;;
52268;SDS011;38224;50.950;4.100;2022-11-21T04:18:25;18.63;;;4.63;;
52268;SDS011;38224;50.950;4.100;2022-11-21T04:20:59;9.20;;;3.17;;
52268;SDS011;38224;50.950;4.100;2022-11-21T04:23:25;20.92;;;4.93;;
52268;SDS011;38224;50.950;4.100;2022-11-21T04:25:50;11.65;;;3.08;;
52268;SDS011;38224;50.950;4.100;2022-11-21T04:28:16;13.63;;;3.65;;
52268;SDS011;38224;50.950;4.100;2022-11-21T04:30:41;9.57;;;2.77;;
52268;SDS011;38224;50.950;4.100;2022-11-21T04:33:06;11.83;;;3.37;;
52268;SDS011;38224;50.950;4.100;2022-11-21T04:35:31;13.87;;;3.70;;
52268;SDS011;38224;50.950;4.100;2022-11-21T04:37:57;16.87;;;3.37;;
52268;SDS011;38224;50.950;4.100;2022-11-21T04:40:22;11.07;;;3.10;;
52268;SDS011;38224;50.950;4.100;2022-11-21T04:42:47;9.40;;;2.83;;
52268;SDS011;38224;50.950;4.100;2022-11-21T04:45:13;10.80;;;2.90;;
52268;SDS011;38224;50.950;4.100;2022-11-21T04:47:39;19.33;;;3.47;;
52268;SDS011;38224;50.950;4.100;2022-11-21T04:50:05;18.27;;;3.35;;
52268;SDS011;38224;50.950;4.100;2022-11-21T04:52:30;9.50;;;3.13;;
52268;SDS011;38224;50.950;4.100;2022-11-21T04:54:55;19.20;;;3.78;;
52268;SDS011;38224;50.950;4.100;2022-11-21T04:57:21;11.33;;;2.90;;
52268;SDS011;38224;50.950;4.100;2022-11-21T04:59:46;10.05;;;2.70;;
52268;SDS011;38224;50.950;4.100;2022-11-21T05:02:11;10.27;;;3.20;;
52268;SDS011;38224;50.950;4.100;2022-11-21T05:04:37;20.95;;;3.42;;
52268;SDS011;38224;50.950;4.100;2022-11-21T05:07:02;12.90;;;3.30;;
52268;SDS011;38224;50.950;4.100;2022-11-21T05:09:27;12.80;;;3.17;;
52268;SDS011;38224;50.950;4.100;2022-11-21T05:11:53;15.97;;;3.30;;
52268;SDS011;38224;50.950;4.100;2022-11-21T05:14:37;16.00;;;3.20;;
52268;SDS011;38224;50.950;4.100;2022-11-21T05:17:02;13.45;;;3.50;;
52268;SDS011;38224;50.950;4.100;2022-11-21T05:19:27;18.80;;;3.37;;
52268;SDS011;38224;50.950;4.100;2022-11-21T05:21:52;17.30;;;3.60;;
52268;SDS011;38224;50.950;4.100;2022-11-21T05:24:18;10.90;;;3.55;;
52268;SDS011;38224;50.950;4.100;2022-11-21T05:26:43;16.77;;;3.97;;
52268;SDS011;38224;50.950;4.100;2022-11-21T05:29:08;8.23;;;3.13;;
52268;SDS011;38224;50.950;4.100;2022-11-21T05:31:33;14.57;;;4.07;;
52268;SDS011;38224;50.950;4.100;2022-11-21T05:33:59;15.93;;;3.90;;
52268;SDS011;38224;50.950;4.100;2022-11-21T05:36:24;18.37;;;4.20;;
52268;SDS011;38224;50.950;4.100;2022-11-21T05:38:49;9.70;;;3.33;;
52268;SDS011;38224;50.950;4.100;2022-11-21T05:41:14;12.93;;;3.90;;
52268;SDS011;38224;50.950;4.100;2022-11-21T05:43:39;14.37;;;3.67;;
52268;SDS011;38224;50.950;4.100;2022-11-21T05:46:15;10.35;;;2.78;;
52268;SDS011;38224;50.950;4.100;2022-11-21T05:48:41;14.73;;;4.25;;
52268;SDS011;38224;50.950;4.100;2022-11-21T05:51:06;11.18;;;3.22;;
52268;SDS011;38224;50.950;4.100;2022-11-21T05:53:32;12.13;;;3.20;;
52268;SDS011;38224;50.950;4.100;2022-11-21T05:56:02;14.60;;;3.55;;
52268;SDS011;38224;50.950;4.100;2022-11-21T05:58:27;15.23;;;4.32;;
52268;SDS011;38224;50.950;4.100;2022-11-21T06:00:56;14.82;;;3.60;;
52268;SDS011;38224;50.950;4.100;2022-11-21T06:03:22;11.27;;;3.47;;
52268;SDS011;38224;50.950;4.100;2022-11-21T06:05:51;23.88;;;4.88;;
52268;SDS011;38224;50.950;4.100;2022-11-21T06:08:16;18.63;;;3.35;;
52268;SDS011;38224;50.950;4.100;2022-11-21T06:10:41;16.15;;;3.75;;
52268;SDS011;38224;50.950;4.100;2022-11-21T06:13:06;15.30;;;3.63;;
52268;SDS011;38224;50.950;4.100;2022-11-21T06:16:07;18.63;;;4.28;;
52268;SDS011;38224;50.950;4.100;2022-11-21T06:18:32;11.80;;;3.92;;
52268;SDS011;38224;50.950;4.100;2022-11-21T06:21:02;12.35;;;4.40;;
52268;SDS011;38224;50.950;4.100;2022-11-21T06:23:27;15.82;;;4.97;;
52268;SDS011;38224;50.950;4.100;2022-11-21T06:25:56;13.25;;;4.20;;
52268;SDS011;38224;50.950;4.100;2022-11-21T06:28:22;17.33;;;4.25;;
52268;SDS011;38224;50.950;4.100;2022-11-21T06:30:47;18.90;;;5.07;;
52268;SDS011;38224;50.950;4.100;2022-11-21T06:33:15;12.80;;;4.28;;
52268;SDS011;38224;50.950;4.100;2022-11-21T06:35:43;16.05;;;4.57;;
52268;SDS011;38224;50.950;4.100;2022-11-21T06:38:08;13.02;;;4.32;;
52268;SDS011;38224;50.950;4.100;2022-11-21T06:40:33;18.42;;;5.57;;
52268;SDS011;38224;50.950;4.100;2022-11-21T06:42:59;18.15;;;5.18;;
52268;SDS011;38224;50.950;4.100;2022-11-21T06:45:24;17.02;;;5.35;;
52268;SDS011;38224;50.950;4.100;2022-11-21T06:47:49;15.70;;;4.55;;
52268;SDS011;38224;50.950;4.100;2022-11-21T06:50:14;16.27;;;5.27;;
52268;SDS011;38224;50.950;4.100;2022-11-21T06:52:40;16.52;;;4.85;;
52268;SDS011;38224;50.950;4.100;2022-11-21T06:55:05;19.60;;;5.07;;
52268;SDS011;38224;50.950;4.100;2022-11-21T06:57:31;17.08;;;5.00;;
52268;SDS011;38224;50.950;4.100;2022-11-21T06:59:56;20.58;;;5.93;;
52268;SDS011;38224;50.950;4.100;2022-11-21T07:02:22;19.73;;;5.65;;
52268;SDS011;38224;50.950;4.100;2022-11-21T07:04:47;24.33;;;5.33;;
52268;SDS011;38224;50.950;4.100;2022-11-21T07:07:12;20.23;;;6.07;;
52268;SDS011;38224;50.950;4.100;2022-11-21T07:09:37;17.47;;;5.57;;
52268;SDS011;38224;50.950;4.100;2022-11-21T07:12:03;25.63;;;6.63;;
52268;SDS011;38224;50.950;4.100;2022-11-21T07:14:46;26.20;;;6.13;;
52268;SDS011;38224;50.950;4.100;2022-11-21T07:17:12;24.80;;;6.68;;
52268;SDS011;38224;50.950;4.100;2022-11-21T07:19:37;25.17;;;6.60;;
52268;SDS011;38224;50.950;4.100;2022-11-21T07:22:03;19.38;;;6.22;;
52268;SDS011;38224;50.950;4.100;2022-11-21T07:24:28;23.67;;;6.70;;
52268;SDS011;38224;50.950;4.100;2022-11-21T07:26:53;23.95;;;6.78;;
52268;SDS011;38224;50.950;4.100;2022-11-21T07:29:18;25.60;;;7.13;;
52268;SDS011;38224;50.950;4.100;2022-11-21T07:31:44;29.43;;;7.17;;
52268;SDS011;38224;50.950;4.100;2022-11-21T07:34:09;17.40;;;6.90;;
52268;SDS011;38224;50.950;4.100;2022-11-21T07:36:34;19.93;;;6.20;;
52268;SDS011;38224;50.950;4.100;2022-11-21T07:39:00;17.55;;;5.57;;
52268;SDS011;38224;50.950;4.100;2022-11-21T07:41:25;17.83;;;5.47;;
52268;SDS011;38224;50.950;4.100;2022-11-21T07:43:50;17.23;;;4.80;;
52268;SDS011;38224;50.950;4.100;2022-11-21T07:46:16;18.27;;;5.40;;
52268;SDS011;38224;50.950;4.100;2022-11-21T07:48:41;20.07;;;5.27;;
52268;SDS011;38224;50.950;4.100;2022-11-21T07:51:06;15.10;;;5.23;;
52268;SDS011;38224;50.950;4.100;2022-11-21T07:53:31;16.40;;;4.83;;
52268;SDS011;38224;50.950;4.100;2022-11-21T07:55:57;17.52;;;4.88;;
52268;SDS011;38224;50.950;4.100;2022-11-21T07:58:23;17.50;;;4.55;;
52268;SDS011;38224;50.950;4.100;2022-11-21T08:00:48;13.77;;;4.17;;
52268;SDS011;38224;50.950;4.100;2022-11-21T08:03:13;9.87;;;3.67;;
52268;SDS011;38224;50.950;4.100;2022-11-21T08:05:39;14.07;;;4.15;;
52268;SDS011;38224;50.950;4.100;2022-11-21T08:08:05;14.20;;;4.53;;
52268;SDS011;38224;50.950;4.100;2022-11-21T08:10:30;11.88;;;4.20;;
52268;SDS011;38224;50.950;4.100;2022-11-21T08:12:56;16.98;;;4.57;;
52268;SDS011;38224;50.950;4.100;2022-11-21T08:15:21;13.40;;;3.63;;
52268;SDS011;38224;50.950;4.100;2022-11-21T08:17:46;10.90;;;3.80;;
52268;SDS011;38224;50.950;4.100;2022-11-21T08:20:12;13.27;;;4.20;;
52268;SDS011;38224;50.950;4.100;2022-11-21T08:22:40;17.33;;;4.65;;
52268;SDS011;38224;50.950;4.100;2022-11-21T08:25:06;13.32;;;4.35;;
52268;SDS011;38224;50.950;4.100;2022-11-21T08:27:32;19.63;;;5.65;;
52268;SDS011;38224;50.950;4.100;2022-11-21T08:29:57;8.98;;;3.78;;
52268;SDS011;38224;50.950;4.100;2022-11-21T08:32:22;23.77;;;4.10;;
52268;SDS011;38224;50.950;4.100;2022-11-21T08:34:47;17.20;;;4.70;;
52268;SDS011;38224;50.950;4.100;2022-11-21T08:37:13;19.73;;;4.30;;
52268;SDS011;38224;50.950;4.100;2022-11-21T08:39:38;24.43;;;5.00;;
52268;SDS011;38224;50.950;4.100;2022-11-21T08:42:03;17.27;;;4.57;;
52268;SDS011;38224;50.950;4.100;2022-11-21T08:44:32;16.02;;;4.95;;
52268;SDS011;38224;50.950;4.100;2022-11-21T08:46:58;17.98;;;5.75;;
52268;SDS011;38224;50.950;4.100;2022-11-21T08:49:23;16.60;;;4.77;;
52268;SDS011;38224;50.950;4.100;2022-11-21T08:51:48;19.60;;;4.43;;
52268;SDS011;38224;50.950;4.100;2022-11-21T08:54:17;29.17;;;5.88;;
52268;SDS011;38224;50.950;4.100;2022-11-21T08:56:43;18.33;;;4.38;;
52268;SDS011;38224;50.950;4.100;2022-11-21T08:59:08;14.40;;;4.50;;
52268;SDS011;38224;50.950;4.100;2022-11-21T09:01:33;23.07;;;5.10;;
52268;SDS011;38224;50.950;4.100;2022-11-21T09:03:59;17.80;;;4.80;;
52268;SDS011;38224;50.950;4.100;2022-11-21T09:06:24;19.47;;;4.73;;
52268;SDS011;38224;50.950;4.100;2022-11-21T09:08:49;17.60;;;3.92;;
52268;SDS011;38224;50.950;4.100;2022-11-21T09:11:15;18.77;;;4.03;;
52268;SDS011;38224;50.950;4.100;2022-11-21T09:13:40;13.02;;;4.43;;
52268;SDS011;38224;50.950;4.100;2022-11-21T09:16:06;14.87;;;4.13;;
52268;SDS011;38224;50.950;4.100;2022-11-21T09:18:53;20.77;;;4.93;;
52268;SDS011;38224;50.950;4.100;2022-11-21T09:21:18;16.95;;;4.70;;
52268;SDS011;38224;50.950;4.100;2022-11-21T09:23:44;21.33;;;5.38;;
52268;SDS011;38224;50.950;4.100;2022-11-21T09:26:09;18.85;;;5.65;;
52268;SDS011;38224;50.950;4.100;2022-11-21T09:28:35;11.77;;;4.93;;
52268;SDS011;38224;50.950;4.100;2022-11-21T09:31:01;21.05;;;5.47;;
52268;SDS011;38224;50.950;4.100;2022-11-21T09:33:26;22.13;;;6.60;;
52268;SDS011;38224;50.950;4.100;2022-11-21T09:35:51;20.33;;;6.47;;
52268;SDS011;38224;50.950;4.100;2022-11-21T09:38:16;20.27;;;5.27;;
52268;SDS011;38224;50.950;4.100;2022-11-21T09:40:42;18.13;;;6.10;;
52268;SDS011;38224;50.950;4.100;2022-11-21T09:48:10;17.77;;;5.90;;
52268;SDS011;38224;50.950;4.100;2022-11-21T09:50:37;15.35;;;5.57;;
52268;SDS011;38224;50.950;4.100;2022-11-21T09:55:48;20.67;;;6.18;;
52268;SDS011;38224;50.950;4.100;2022-11-21T09:58:18;17.60;;;6.25;;
52268;SDS011;38224;50.950;4.100;2022-11-21T10:00:44;18.80;;;7.18;;
52268;SDS011;38224;50.950;4.100;2022-11-21T10:03:10;18.92;;;6.30;;
52268;SDS011;38224;50.950;4.100;2022-11-21T10:08:04;23.00;;;7.35;;
52268;SDS011;38224;50.950;4.100;2022-11-21T10:10:52;16.30;;;6.15;;
52268;SDS011;38224;50.950;4.100;2022-11-21T10:13:21;20.27;;;6.15;;
52268;SDS011;38224;50.950;4.100;2022-11-21T10:15:57;16.60;;;6.72;;
52268;SDS011;38224;50.950;4.100;2022-11-21T10:24:00;14.23;;;5.30;;
52268;SDS011;38224;50.950;4.100;2022-11-21T10:31:18;12.90;;;5.60;;
52268;SDS011;38224;50.950;4.100;2022-11-21T10:33:44;15.65;;;6.03;;
52268;SDS011;38224;50.950;4.100;2022-11-21T10:38:44;18.98;;;5.22;;
52268;SDS011;38224;50.950;4.100;2022-11-21T10:41:17;14.70;;;5.45;;
52268;SDS011;38224;50.950;4.100;2022-11-21T10:43:55;12.73;;;5.50;;
52268;SDS011;38224;50.950;4.100;2022-11-21T10:47:00;18.40;;;5.75;;
52268;SDS011;38224;50.950;4.100;2022-11-21T10:49:27;20.88;;;6.38;;
52268;SDS011;38224;50.950;4.100;2022-11-21T10:51:56;19.38;;;6.07;;
52268;SDS011;38224;50.950;4.100;2022-11-21T10:54:24;16.70;;;6.40;;
52268;SDS011;38224;50.950;4.100;2022-11-21T10:57:00;23.67;;;6.00;;
52268;SDS011;38224;50.950;4.100;2022-11-21T10:59:27;16.13;;;6.35;;
52268;SDS011;38224;50.950;4.100;2022-11-21T11:01:54;19.20;;;5.75;;
52268;SDS011;38224;50.950;4.100;2022-11-21T11:04:19;22.73;;;6.38;;
52268;SDS011;38224;50.950;4.100;2022-11-21T11:06:46;19.15;;;6.03;;
52268;SDS011;38224;50.950;4.100;2022-11-21T11:11:49;17.05;;;5.88;;
52268;SDS011;38224;50.950;4.100;2022-11-21T11:14:14;16.63;;;6.13;;
52268;SDS011;38224;50.950;4.100;2022-11-21T11:16:44;17.67;;;7.07;;
52268;SDS011;38224;50.950;4.100;2022-11-21T11:24:19;18.20;;;7.28;;
52268;SDS011;38224;50.950;4.100;2022-11-21T11:29:19;22.95;;;7.78;;
52268;SDS011;38224;50.950;4.100;2022-11-21T11:37:11;13.70;;;5.97;;
52268;SDS011;38224;50.950;4.100;2022-11-21T11:39:54;17.98;;;7.75;;
52268;SDS011;38224;50.950;4.100;2022-11-21T11:47:57;18.38;;;8.30;;
52268;SDS011;38224;50.950;4.100;2022-11-21T11:57:58;24.17;;;7.95;;
52268;SDS011;38224;50.950;4.100;2022-11-21T12:00:27;23.23;;;7.75;;
52268;SDS011;38224;50.950;4.100;2022-11-21T12:05:25;20.63;;;7.63;;
52268;SDS011;38224;50.950;4.100;2022-11-21T12:08:02;21.98;;;7.90;;
52268;SDS011;38224;50.950;4.100;2022-11-21T12:10:30;19.30;;;8.27;;
52268;SDS011;38224;50.950;4.100;2022-11-21T12:13:02;19.30;;;7.95;;
52268;SDS011;38224;50.950;4.100;2022-11-21T12:15:35;21.05;;;8.13;;
52268;SDS011;38224;50.950;4.100;2022-11-21T12:23:20;19.80;;;7.82;;
52268;SDS011;38224;50.950;4.100;2022-11-21T12:28:45;24.67;;;7.72;;
52268;SDS011;38224;50.950;4.100;2022-11-21T12:31:14;31.23;;;11.32;;
52268;SDS011;38224;50.950;4.100;2022-11-21T12:33:47;27.57;;;9.13;;
52268;SDS011;38224;50.950;4.100;2022-11-21T12:36:16;16.17;;;7.30;;
52268;SDS011;38224;50.950;4.100;2022-11-21T12:41:21;27.90;;;8.55;;
52268;SDS011;38224;50.950;4.100;2022-11-21T12:44:30;17.75;;;6.40;;
52268;SDS011;38224;50.950;4.100;2022-11-21T12:49:35;28.92;;;8.35;;
52268;SDS011;38224;50.950;4.100;2022-11-21T12:52:24;27.35;;;8.25;;
52268;SDS011;38224;50.950;4.100;2022-11-21T13:00:29;15.75;;;5.53;;
52268;SDS011;38224;50.950;4.100;2022-11-21T13:05:43;16.05;;;6.25;;
52268;SDS011;38224;50.950;4.100;2022-11-21T13:08:17;23.92;;;7.68;;
52268;SDS011;38224;50.950;4.100;2022-11-21T13:13:40;22.40;;;6.30;;
52268;SDS011;38224;50.950;4.100;2022-11-21T13:16:08;19.27;;;6.05;;
52268;SDS011;38224;50.950;4.100;2022-11-21T13:18:35;17.77;;;6.55;;
52268;SDS011;38224;50.950;4.100;2022-11-21T13:21:08;15.45;;;5.80;;
52268;SDS011;38224;50.950;4.100;2022-11-21T13:23:50;21.25;;;5.82;;
52268;SDS011;38224;50.950;4.100;2022-11-21T13:28:50;18.67;;;5.95;;
52268;SDS011;38224;50.950;4.100;2022-11-21T13:31:27;16.83;;;5.88;;
52268;SDS011;38224;50.950;4.100;2022-11-21T13:33:52;21.33;;;5.45;;
52268;SDS011;38224;50.950;4.100;2022-11-21T13:49:23;28.42;;;4.95;;
52268;SDS011;38224;50.950;4.100;2022-11-21T13:51:52;13.88;;;4.07;;
52268;SDS011;38224;50.950;4.100;2022-11-21T13:54:28;15.25;;;4.72;;
52268;SDS011;38224;50.950;4.100;2022-11-21T14:07:20;14.57;;;3.63;;
52268;SDS011;38224;50.950;4.100;2022-11-21T14:09:47;16.67;;;3.53;;
52268;SDS011;38224;50.950;4.100;2022-11-21T14:14:47;11.65;;;3.72;;
52268;SDS011;38224;50.950;4.100;2022-11-21T14:17:26;11.20;;;3.75;;
52268;SDS011;38224;50.950;4.100;2022-11-21T14:19:56;9.75;;;3.42;;
52268;SDS011;38224;50.950;4.100;2022-11-21T14:22:26;13.15;;;3.75;;
52268;SDS011;38224;50.950;4.100;2022-11-21T14:24:53;20.80;;;4.15;;
52268;SDS011;38224;50.950;4.100;2022-11-21T14:27:29;12.27;;;3.75;;
52268;SDS011;38224;50.950;4.100;2022-11-21T14:29:55;19.23;;;3.60;;
52268;SDS011;38224;50.950;4.100;2022-11-21T14:32:26;15.45;;;4.55;;
52268;SDS011;38224;50.950;4.100;2022-11-21T14:34:52;15.75;;;3.90;;
52268;SDS011;38224;50.950;4.100;2022-11-21T14:37:17;10.73;;;3.73;;
52268;SDS011;38224;50.950;4.100;2022-11-21T14:39:42;17.13;;;4.00;;
52268;SDS011;38224;50.950;4.100;2022-11-21T14:42:13;13.10;;;3.05;;
52268;SDS011;38224;50.950;4.100;2022-11-21T14:44:39;16.10;;;4.32;;
52268;SDS011;38224;50.950;4.100;2022-11-21T14:47:12;14.07;;;4.05;;
52268;SDS011;38224;50.950;4.100;2022-11-21T14:49:46;9.77;;;3.70;;
52268;SDS011;38224;50.950;4.100;2022-11-21T14:52:16;13.00;;;2.85;;
52268;SDS011;38224;50.950;4.100;2022-11-21T14:57:07;17.40;;;3.47;;
52268;SDS011;38224;50.950;4.100;2022-11-21T14:59:42;15.25;;;5.15;;
52268;SDS011;38224;50.950;4.100;2022-11-21T15:04:35;11.93;;;4.30;;
52268;SDS011;38224;50.950;4.100;2022-11-21T15:07:01;9.43;;;3.80;;
52268;SDS011;38224;50.950;4.100;2022-11-21T15:09:26;16.17;;;3.95;;
52268;SDS011;38224;50.950;4.100;2022-11-21T15:14:19;16.10;;;4.85;;
52268;SDS011;38224;50.950;4.100;2022-11-21T15:16:46;10.70;;;3.53;;
52268;SDS011;38224;50.950;4.100;2022-11-21T15:19:16;15.30;;;4.20;;
52268;SDS011;38224;50.950;4.100;2022-11-21T15:21:43;19.10;;;4.03;;
52268;SDS011;38224;50.950;4.100;2022-11-21T15:24:27;14.13;;;3.85;;
52268;SDS011;38224;50.950;4.100;2022-11-21T15:26:53;15.13;;;4.75;;
52268;SDS011;38224;50.950;4.100;2022-11-21T15:29:19;14.18;;;5.03;;
52268;SDS011;38224;50.950;4.100;2022-11-21T15:31:45;13.02;;;3.88;;
52268;SDS011;38224;50.950;4.100;2022-11-21T15:34:11;16.88;;;4.22;;
52268;SDS011;38224;50.950;4.100;2022-11-21T15:36:36;14.73;;;3.88;;
52268;SDS011;38224;50.950;4.100;2022-11-21T15:39:02;24.17;;;4.20;;
52268;SDS011;38224;50.950;4.100;2022-11-21T15:41:35;11.43;;;3.60;;
52268;SDS011;38224;50.950;4.100;2022-11-21T15:48:51;17.67;;;3.60;;
52268;SDS011;38224;50.950;4.100;2022-11-21T15:51:18;12.50;;;3.30;;
52268;SDS011;38224;50.950;4.100;2022-11-21T15:53:43;15.95;;;3.75;;
52268;SDS011;38224;50.950;4.100;2022-11-21T15:56:09;12.32;;;3.70;;
52268;SDS011;38224;50.950;4.100;2022-11-21T15:58:35;15.45;;;5.22;;
52268;SDS011;38224;50.950;4.100;2022-11-21T16:01:00;15.20;;;3.83;;
52268;SDS011;38224;50.950;4.100;2022-11-21T16:03:25;12.97;;;3.60;;
52268;SDS011;38224;50.950;4.100;2022-11-21T16:05:51;19.08;;;4.38;;
52268;SDS011;38224;50.950;4.100;2022-11-21T16:08:16;14.18;;;4.13;;
52268;SDS011;38224;50.950;4.100;2022-11-21T16:10:41;15.20;;;4.13;;
52268;SDS011;38224;50.950;4.100;2022-11-21T16:13:07;17.33;;;5.37;;
52268;SDS011;38224;50.950;4.100;2022-11-21T16:15:33;18.65;;;4.10;;
52268;SDS011;38224;50.950;4.100;2022-11-21T16:17:58;14.60;;;4.13;;
52268;SDS011;38224;50.950;4.100;2022-11-21T16:20:23;17.80;;;4.10;;
52268;SDS011;38224;50.950;4.100;2022-11-21T16:22:48;20.27;;;4.55;;
52268;SDS011;38224;50.950;4.100;2022-11-21T16:25:14;22.77;;;5.20;;
52268;SDS011;38224;50.950;4.100;2022-11-21T16:27:39;16.38;;;4.88;;
52268;SDS011;38224;50.950;4.100;2022-11-21T16:30:04;16.55;;;4.20;;
52268;SDS011;38224;50.950;4.100;2022-11-21T16:32:30;20.48;;;4.45;;
52268;SDS011;38224;50.950;4.100;2022-11-21T16:34:55;15.83;;;4.57;;
52268;SDS011;38224;50.950;4.100;2022-11-21T16:37:22;22.10;;;4.60;;
52268;SDS011;38224;50.950;4.100;2022-11-21T16:39:47;23.75;;;5.25;;
52268;SDS011;38224;50.950;4.100;2022-11-21T16:42:16;21.52;;;4.68;;